createdAt,value
2023-03-05T06:59:27.232Z,23.22
2023-03-05T07:00:27.222Z,23.21
2023-03-05T07:01:27.237Z,23.22
2023-03-05T07:02:27.297Z,23.22
2023-03-05T07:03:27.188Z,23.21
2023-03-05T07:04:27.186Z,23.22
2023-03-05T07:05:27.173Z,23.21
2023-03-05T07:06:27.165Z,23.21
2023-03-05T07:07:27.155Z,23.21
2023-03-05T07:08:27.151Z,23.22
2023-03-05T07:09:27.141Z,23.21
2023-03-05T07:10:27.134Z,23.22
2023-03-05T07:11:27.122Z,23.23
2023-03-05T07:12:27.109Z,23.23
2023-03-05T07:13:27.097Z,23.23
2023-03-05T07:14:27.095Z,23.22
2023-03-05T07:15:27.087Z,23.23
2023-03-05T07:16:27.073Z,23.22
2023-03-05T07:17:27.066Z,23.23
2023-03-05T07:18:27.084Z,23.22
2023-03-05T07:19:27.041Z,23.22
2023-03-05T07:21:27.025Z,23.22
2023-03-05T07:22:27.013Z,23.23
2023-03-05T07:23:27.009Z,23.22
2023-03-05T07:24:27.000Z,23.22
2023-03-05T07:25:26.988Z,23.22
2023-03-05T07:54:27.342Z,23.24
2023-03-05T18:15:20.971Z,23.42
2023-03-05T21:56:18.898Z,23.31
2023-03-05T21:57:18.918Z,23.32
2023-03-05T21:58:18.900Z,23.31
2023-03-05T21:59:18.863Z,23.31
2023-03-05T22:00:18.855Z,23.32
2023-03-05T22:01:18.889Z,23.31
2023-03-05T22:03:19.131Z,23.31
2023-03-05T22:04:18.822Z,23.31
2023-03-05T22:05:18.810Z,23.32
2023-03-05T22:06:18.824Z,23.32
2023-03-05T22:07:18.856Z,23.32
2023-03-05T22:08:18.844Z,23.31
2023-03-05T22:09:18.767Z,23.31
2023-03-05T22:10:18.760Z,23.31
2023-03-05T22:11:18.811Z,23.31
2023-03-05T22:13:18.735Z,23.31
2023-03-05T22:14:18.750Z,23.30
2023-03-05T22:15:18.715Z,23.30
2023-03-05T22:16:18.787Z,23.30
2023-03-05T22:18:18.684Z,23.29
2023-03-05T22:19:18.677Z,23.30
2023-03-05T22:20:18.669Z,23.30
2023-03-05T22:21:18.660Z,23.31
2023-03-05T22:23:18.647Z,23.30
2023-03-05T22:24:18.634Z,23.30
2023-03-05T22:25:18.623Z,23.30
2023-03-05T22:26:18.625Z,23.31
2023-03-05T22:27:18.600Z,23.30
2023-03-05T22:28:18.603Z,23.31
2023-03-05T22:29:18.582Z,23.31
2023-03-05T22:30:18.602Z,23.30
2023-03-05T22:31:18.561Z,23.30
2023-03-05T22:32:18.584Z,23.31
2023-03-05T22:33:18.552Z,23.31
2023-03-05T22:34:18.542Z,23.31
2023-03-05T22:35:18.565Z,23.30
2023-03-05T22:36:18.516Z,23.30
2023-03-05T22:37:18.520Z,23.30
2023-03-05T22:38:18.517Z,23.30
2023-03-05T22:39:18.488Z,23.30
2023-03-05T22:40:18.485Z,23.30
2023-03-05T22:41:18.468Z,23.30
2023-03-05T22:42:18.460Z,23.30
2023-03-05T22:43:18.461Z,23.30
2023-03-05T22:44:18.440Z,23.29
2023-03-05T22:45:18.440Z,23.30
2023-03-05T22:46:18.585Z,23.29
2023-03-05T22:47:18.418Z,23.30
2023-03-05T22:48:18.405Z,23.29
2023-03-05T22:49:18.396Z,23.29
2023-03-05T22:50:18.388Z,23.29
2023-03-05T22:51:18.386Z,23.29
2023-03-05T22:52:18.374Z,23.29
2023-03-05T22:53:18.356Z,23.29
2023-03-05T22:54:18.349Z,23.29
2023-03-05T22:55:18.342Z,23.29
2023-03-05T22:56:18.342Z,23.29
2023-03-05T22:57:18.321Z,23.29
2023-03-05T22:58:18.315Z,23.29
2023-03-05T22:59:18.306Z,23.29
2023-03-05T23:00:18.307Z,23.29
2023-03-05T23:01:18.296Z,23.29
2023-03-05T23:02:18.318Z,23.29
2023-03-05T23:03:18.299Z,23.29
2023-03-05T23:04:18.345Z,23.29
2023-03-05T23:05:18.253Z,23.29
2023-03-05T23:06:18.248Z,23.29
2023-03-05T23:07:18.243Z,23.29
2023-03-05T23:09:18.700Z,23.29
2023-03-05T23:10:18.210Z,23.29
2023-03-05T23:11:18.203Z,23.29
2023-03-05T23:12:18.194Z,23.28
2023-03-05T23:13:18.190Z,23.28
2023-03-05T23:14:18.205Z,23.29
2023-03-05T23:15:18.164Z,23.29
2023-03-05T23:16:18.236Z,23.29
2023-03-05T23:17:18.151Z,23.29
2023-03-05T23:18:18.172Z,23.28
2023-03-05T23:19:18.136Z,23.29
2023-03-05T23:20:18.131Z,23.28
2023-03-05T23:21:18.115Z,23.28
2023-03-05T23:22:18.119Z,23.29
2023-03-05T23:23:18.091Z,23.29
2023-03-05T23:24:18.086Z,23.29
2023-03-05T23:25:18.085Z,23.29
2023-03-05T23:26:18.071Z,23.28
2023-03-05T23:27:18.061Z,23.28
2023-03-05T23:28:18.054Z,23.29
2023-03-05T23:29:18.050Z,23.29
2023-03-05T23:30:18.032Z,23.28
2023-03-05T23:31:18.091Z,23.29
2023-03-05T23:32:18.080Z,23.29
2023-03-05T23:33:18.002Z,23.29
2023-03-05T23:34:18.018Z,23.28
2023-03-05T23:35:18.141Z,23.29
2023-03-05T23:36:17.980Z,23.27
2023-03-05T23:37:17.966Z,23.28
2023-03-05T23:38:18.166Z,23.27
2023-03-05T23:39:17.953Z,23.28
2023-03-05T23:40:18.163Z,23.28
2023-03-05T23:41:17.923Z,23.28
2023-03-05T23:42:18.002Z,23.28
2023-03-05T23:43:17.912Z,23.28
2023-03-05T23:44:17.899Z,23.27
2023-03-05T23:45:17.908Z,23.27
2023-03-05T23:46:17.947Z,23.27
2023-03-05T23:47:17.864Z,23.28
2023-03-05T23:48:17.866Z,23.28
2023-03-05T23:49:17.881Z,23.27
2023-03-05T23:50:17.870Z,23.27
2023-03-05T23:51:17.843Z,23.28
2023-03-05T23:52:17.834Z,23.28
2023-03-05T23:53:17.835Z,23.28
2023-03-05T23:54:17.806Z,23.28
2023-03-05T23:55:17.798Z,23.28
2023-03-05T23:56:17.794Z,23.28
2023-03-05T23:57:17.784Z,23.27
